sensor_id;sensor_type;location;lat;lon;timestamp;P1;durP1;ratioP1;P2;durP2;ratioP2
15198;SDS011;7700;48.654;9.070;2022-11-23T00:00:54;5.47;;;3.20;;
15198;SDS011;7700;48.654;9.070;2022-11-23T00:03:20;5.63;;;3.83;;
15198;SDS011;7700;48.654;9.070;2022-11-23T00:05:46;3.17;;;2.57;;
15198;SDS011;7700;48.654;9.070;2022-11-23T00:08:12;7.37;;;2.97;;
15198;SDS011;7700;48.654;9.070;2022-11-23T00:10:38;5.23;;;2.87;;
15198;SDS011;7700;48.654;9.070;2022-11-23T00:13:04;3.63;;;2.63;;
15198;SDS011;7700;48.654;9.070;2022-11-23T00:15:30;4.60;;;2.60;;
15198;SDS011;7700;48.654;9.070;2022-11-23T00:17:57;6.73;;;2.80;;
15198;SDS011;7700;48.654;9.070;2022-11-23T00:20:24;3.20;;;2.20;;
15198;SDS011;7700;48.654;9.070;2022-11-23T00:22:50;4.00;;;2.43;;
15198;SDS011;7700;48.654;9.070;2022-11-23T00:25:16;3.63;;;2.40;;
15198;SDS011;7700;48.654;9.070;2022-11-23T00:27:42;3.67;;;2.83;;
15198;SDS011;7700;48.654;9.070;2022-11-23T00:30:08;4.67;;;3.50;;
15198;SDS011;7700;48.654;9.070;2022-11-23T00:32:34;7.57;;;2.57;;
15198;SDS011;7700;48.654;9.070;2022-11-23T00:35:00;6.17;;;2.03;;
15198;SDS011;7700;48.654;9.070;2022-11-23T00:37:26;5.37;;;2.60;;
15198;SDS011;7700;48.654;9.070;2022-11-23T00:39:52;4.27;;;3.07;;
15198;SDS011;7700;48.654;9.070;2022-11-23T00:42:18;4.23;;;2.50;;
15198;SDS011;7700;48.654;9.070;2022-11-23T00:44:44;5.47;;;2.70;;
15198;SDS011;7700;48.654;9.070;2022-11-23T00:47:10;5.67;;;2.53;;
15198;SDS011;7700;48.654;9.070;2022-11-23T00:49:36;7.43;;;2.67;;
15198;SDS011;7700;48.654;9.070;2022-11-23T00:52:02;3.47;;;2.40;;
15198;SDS011;7700;48.654;9.070;2022-11-23T00:54:28;5.00;;;2.30;;
15198;SDS011;7700;48.654;9.070;2022-11-23T00:56:54;2.47;;;2.23;;
15198;SDS011;7700;48.654;9.070;2022-11-23T00:59:20;3.20;;;2.47;;
15198;SDS011;7700;48.654;9.070;2022-11-23T01:01:47;4.77;;;2.43;;
15198;SDS011;7700;48.654;9.070;2022-11-23T01:04:13;5.73;;;2.53;;
15198;SDS011;7700;48.654;9.070;2022-11-23T01:06:39;3.43;;;2.10;;
15198;SDS011;7700;48.654;9.070;2022-11-23T01:09:15;5.17;;;2.20;;
15198;SDS011;7700;48.654;9.070;2022-11-23T01:11:42;3.90;;;2.33;;
15198;SDS011;7700;48.654;9.070;2022-11-23T01:14:08;5.53;;;2.50;;
15198;SDS011;7700;48.654;9.070;2022-11-23T01:16:35;7.00;;;2.40;;
15198;SDS011;7700;48.654;9.070;2022-11-23T01:19:04;5.50;;;2.30;;
15198;SDS011;7700;48.654;9.070;2022-11-23T01:21:31;2.40;;;2.07;;
15198;SDS011;7700;48.654;9.070;2022-11-23T01:23:57;3.03;;;2.37;;
15198;SDS011;7700;48.654;9.070;2022-11-23T01:26:24;2.83;;;2.10;;
15198;SDS011;7700;48.654;9.070;2022-11-23T01:28:50;3.97;;;1.83;;
15198;SDS011;7700;48.654;9.070;2022-11-23T01:31:17;4.40;;;2.00;;
15198;SDS011;7700;48.654;9.070;2022-11-23T01:33:43;2.90;;;1.63;;
15198;SDS011;7700;48.654;9.070;2022-11-23T01:36:14;5.13;;;2.00;;
15198;SDS011;7700;48.654;9.070;2022-11-23T01:38:40;6.90;;;2.70;;
15198;SDS011;7700;48.654;9.070;2022-11-23T01:41:07;3.77;;;2.00;;
15198;SDS011;7700;48.654;9.070;2022-11-23T01:43:34;4.23;;;1.90;;
15198;SDS011;7700;48.654;9.070;2022-11-23T01:46:00;4.93;;;2.17;;
15198;SDS011;7700;48.654;9.070;2022-11-23T01:48:28;5.83;;;2.20;;
15198;SDS011;7700;48.654;9.070;2022-11-23T01:50:55;4.23;;;2.30;;
15198;SDS011;7700;48.654;9.070;2022-11-23T01:53:23;4.50;;;2.37;;
15198;SDS011;7700;48.654;9.070;2022-11-23T01:55:49;4.80;;;2.47;;
15198;SDS011;7700;48.654;9.070;2022-11-23T01:58:17;3.83;;;2.63;;
15198;SDS011;7700;48.654;9.070;2022-11-23T02:00:44;5.40;;;2.27;;
15198;SDS011;7700;48.654;9.070;2022-11-23T02:03:11;2.77;;;2.20;;
15198;SDS011;7700;48.654;9.070;2022-11-23T02:05:40;4.43;;;2.23;;
15198;SDS011;7700;48.654;9.070;2022-11-23T02:08:07;3.47;;;2.23;;
15198;SDS011;7700;48.654;9.070;2022-11-23T02:10:33;2.87;;;2.43;;
15198;SDS011;7700;48.654;9.070;2022-11-23T02:13:05;2.67;;;2.23;;
15198;SDS011;7700;48.654;9.070;2022-11-23T02:15:32;4.43;;;2.20;;
15198;SDS011;7700;48.654;9.070;2022-11-23T02:17:59;3.40;;;2.27;;
15198;SDS011;7700;48.654;9.070;2022-11-23T02:20:26;2.97;;;2.13;;
15198;SDS011;7700;48.654;9.070;2022-11-23T02:28:14;3.33;;;2.07;;
15198;SDS011;7700;48.654;9.070;2022-11-23T02:30:40;5.30;;;2.50;;
15198;SDS011;7700;48.654;9.070;2022-11-23T02:33:07;5.80;;;3.30;;
15198;SDS011;7700;48.654;9.070;2022-11-23T02:35:33;6.07;;;4.33;;
15198;SDS011;7700;48.654;9.070;2022-11-23T02:38:00;5.73;;;4.23;;
15198;SDS011;7700;48.654;9.070;2022-11-23T02:40:28;4.70;;;3.50;;
15198;SDS011;7700;48.654;9.070;2022-11-23T02:42:56;5.47;;;3.83;;
15198;SDS011;7700;48.654;9.070;2022-11-23T02:47:48;5.00;;;3.97;;
15198;SDS011;7700;48.654;9.070;2022-11-23T02:50:14;4.20;;;2.90;;
15198;SDS011;7700;48.654;9.070;2022-11-23T02:52:40;3.93;;;2.50;;
15198;SDS011;7700;48.654;9.070;2022-11-23T02:55:06;3.50;;;2.07;;
15198;SDS011;7700;48.654;9.070;2022-11-23T02:57:33;3.00;;;1.97;;
15198;SDS011;7700;48.654;9.070;2022-11-23T02:59:59;4.77;;;2.20;;
15198;SDS011;7700;48.654;9.070;2022-11-23T03:02:25;5.13;;;2.30;;
15198;SDS011;7700;48.654;9.070;2022-11-23T03:04:50;3.10;;;1.80;;
15198;SDS011;7700;48.654;9.070;2022-11-23T03:07:16;2.03;;;1.67;;
15198;SDS011;7700;48.654;9.070;2022-11-23T03:09:42;4.47;;;2.67;;
15198;SDS011;7700;48.654;9.070;2022-11-23T03:12:09;6.13;;;3.37;;
15198;SDS011;7700;48.654;9.070;2022-11-23T03:14:35;11.87;;;7.20;;
15198;SDS011;7700;48.654;9.070;2022-11-23T03:17:02;11.77;;;7.00;;
15198;SDS011;7700;48.654;9.070;2022-11-23T03:19:29;5.37;;;2.97;;
15198;SDS011;7700;48.654;9.070;2022-11-23T03:21:55;5.50;;;3.27;;
15198;SDS011;7700;48.654;9.070;2022-11-23T03:24:21;6.43;;;3.53;;
15198;SDS011;7700;48.654;9.070;2022-11-23T03:26:47;4.70;;;3.03;;
15198;SDS011;7700;48.654;9.070;2022-11-23T03:29:13;5.70;;;2.83;;
15198;SDS011;7700;48.654;9.070;2022-11-23T03:31:39;4.90;;;3.00;;
15198;SDS011;7700;48.654;9.070;2022-11-23T03:34:05;5.90;;;2.70;;
15198;SDS011;7700;48.654;9.070;2022-11-23T03:36:31;4.43;;;2.13;;
15198;SDS011;7700;48.654;9.070;2022-11-23T03:38:57;8.03;;;2.70;;
15198;SDS011;7700;48.654;9.070;2022-11-23T03:41:23;4.70;;;2.20;;
15198;SDS011;7700;48.654;9.070;2022-11-23T03:43:49;4.10;;;2.33;;
15198;SDS011;7700;48.654;9.070;2022-11-23T03:46:15;1.97;;;1.70;;
15198;SDS011;7700;48.654;9.070;2022-11-23T03:48:41;5.43;;;2.47;;
15198;SDS011;7700;48.654;9.070;2022-11-23T03:51:07;5.03;;;1.87;;
15198;SDS011;7700;48.654;9.070;2022-11-23T03:53:33;3.37;;;2.30;;
15198;SDS011;7700;48.654;9.070;2022-11-23T03:55:59;2.10;;;1.90;;
15198;SDS011;7700;48.654;9.070;2022-11-23T03:58:25;3.47;;;2.00;;
15198;SDS011;7700;48.654;9.070;2022-11-23T04:00:51;3.67;;;2.37;;
15198;SDS011;7700;48.654;9.070;2022-11-23T04:03:17;4.10;;;1.70;;
15198;SDS011;7700;48.654;9.070;2022-11-23T04:05:43;4.80;;;2.37;;
15198;SDS011;7700;48.654;9.070;2022-11-23T04:08:09;2.97;;;2.00;;
15198;SDS011;7700;48.654;9.070;2022-11-23T04:10:35;3.00;;;2.17;;
15198;SDS011;7700;48.654;9.070;2022-11-23T04:13:01;3.57;;;1.97;;
15198;SDS011;7700;48.654;9.070;2022-11-23T04:15:27;3.60;;;2.37;;
15198;SDS011;7700;48.654;9.070;2022-11-23T04:17:53;3.20;;;2.33;;
15198;SDS011;7700;48.654;9.070;2022-11-23T04:20:19;3.50;;;2.23;;
15198;SDS011;7700;48.654;9.070;2022-11-23T04:22:46;5.07;;;2.40;;
15198;SDS011;7700;48.654;9.070;2022-11-23T04:25:11;5.43;;;3.33;;
15198;SDS011;7700;48.654;9.070;2022-11-23T04:27:37;6.50;;;4.70;;
15198;SDS011;7700;48.654;9.070;2022-11-23T04:30:04;8.90;;;5.77;;
15198;SDS011;7700;48.654;9.070;2022-11-23T04:32:30;9.83;;;6.63;;
15198;SDS011;7700;48.654;9.070;2022-11-23T04:34:56;5.27;;;4.43;;
15198;SDS011;7700;48.654;9.070;2022-11-23T04:37:22;6.87;;;4.43;;
15198;SDS011;7700;48.654;9.070;2022-11-23T04:39:48;4.20;;;2.90;;
15198;SDS011;7700;48.654;9.070;2022-11-23T04:42:14;3.23;;;2.63;;
15198;SDS011;7700;48.654;9.070;2022-11-23T04:44:40;5.20;;;2.87;;
15198;SDS011;7700;48.654;9.070;2022-11-23T04:47:06;5.03;;;2.30;;
15198;SDS011;7700;48.654;9.070;2022-11-23T04:49:32;3.40;;;2.30;;
15198;SDS011;7700;48.654;9.070;2022-11-23T04:51:58;5.80;;;2.97;;
15198;SDS011;7700;48.654;9.070;2022-11-23T04:54:24;5.80;;;2.93;;
15198;SDS011;7700;48.654;9.070;2022-11-23T04:56:50;3.97;;;2.67;;
15198;SDS011;7700;48.654;9.070;2022-11-23T04:59:18;3.27;;;2.83;;
15198;SDS011;7700;48.654;9.070;2022-11-23T05:01:44;4.90;;;2.60;;
15198;SDS011;7700;48.654;9.070;2022-11-23T05:04:10;3.43;;;2.63;;
15198;SDS011;7700;48.654;9.070;2022-11-23T05:06:36;6.33;;;2.40;;
15198;SDS011;7700;48.654;9.070;2022-11-23T05:09:02;5.83;;;2.53;;
15198;SDS011;7700;48.654;9.070;2022-11-23T05:11:28;4.27;;;2.40;;
15198;SDS011;7700;48.654;9.070;2022-11-23T05:13:54;4.47;;;2.40;;
15198;SDS011;7700;48.654;9.070;2022-11-23T05:16:20;4.17;;;2.30;;
15198;SDS011;7700;48.654;9.070;2022-11-23T05:18:46;3.63;;;2.20;;
15198;SDS011;7700;48.654;9.070;2022-11-23T05:21:12;3.40;;;2.37;;
15198;SDS011;7700;48.654;9.070;2022-11-23T05:23:38;4.47;;;2.17;;
15198;SDS011;7700;48.654;9.070;2022-11-23T05:26:04;5.17;;;2.30;;
15198;SDS011;7700;48.654;9.070;2022-11-23T05:28:30;5.63;;;2.10;;
15198;SDS011;7700;48.654;9.070;2022-11-23T05:30:56;2.33;;;1.80;;
15198;SDS011;7700;48.654;9.070;2022-11-23T05:33:22;2.60;;;2.37;;
15198;SDS011;7700;48.654;9.070;2022-11-23T05:35:48;3.30;;;2.97;;
15198;SDS011;7700;48.654;9.070;2022-11-23T05:38:14;4.43;;;2.47;;
15198;SDS011;7700;48.654;9.070;2022-11-23T05:40:40;2.87;;;2.20;;
15198;SDS011;7700;48.654;9.070;2022-11-23T05:43:06;4.63;;;2.93;;
15198;SDS011;7700;48.654;9.070;2022-11-23T05:45:32;3.53;;;3.07;;
15198;SDS011;7700;48.654;9.070;2022-11-23T05:47:58;4.30;;;2.17;;
15198;SDS011;7700;48.654;9.070;2022-11-23T05:50:25;3.27;;;2.53;;
15198;SDS011;7700;48.654;9.070;2022-11-23T05:52:51;2.10;;;1.90;;
15198;SDS011;7700;48.654;9.070;2022-11-23T05:55:17;5.40;;;2.20;;
15198;SDS011;7700;48.654;9.070;2022-11-23T05:57:44;3.73;;;2.17;;
15198;SDS011;7700;48.654;9.070;2022-11-23T06:00:10;4.97;;;2.63;;
15198;SDS011;7700;48.654;9.070;2022-11-23T06:02:37;3.73;;;2.80;;
15198;SDS011;7700;48.654;9.070;2022-11-23T06:05:03;4.33;;;2.90;;
15198;SDS011;7700;48.654;9.070;2022-11-23T06:07:32;3.17;;;2.57;;
15198;SDS011;7700;48.654;9.070;2022-11-23T06:09:59;7.33;;;3.47;;
15198;SDS011;7700;48.654;9.070;2022-11-23T06:12:26;7.00;;;4.70;;
15198;SDS011;7700;48.654;9.070;2022-11-23T06:14:52;6.53;;;4.13;;
15198;SDS011;7700;48.654;9.070;2022-11-23T06:17:18;7.97;;;4.80;;
15198;SDS011;7700;48.654;9.070;2022-11-23T06:19:44;4.70;;;4.13;;
15198;SDS011;7700;48.654;9.070;2022-11-23T06:22:10;8.53;;;6.60;;
15198;SDS011;7700;48.654;9.070;2022-11-23T06:24:36;9.80;;;7.67;;
15198;SDS011;7700;48.654;9.070;2022-11-23T06:27:02;13.37;;;9.30;;
15198;SDS011;7700;48.654;9.070;2022-11-23T06:29:28;11.57;;;8.73;;
15198;SDS011;7700;48.654;9.070;2022-11-23T06:31:54;9.30;;;8.23;;
15198;SDS011;7700;48.654;9.070;2022-11-23T06:34:20;10.83;;;7.33;;
15198;SDS011;7700;48.654;9.070;2022-11-23T06:36:46;11.77;;;10.53;;
15198;SDS011;7700;48.654;9.070;2022-11-23T06:39:12;11.37;;;8.37;;
15198;SDS011;7700;48.654;9.070;2022-11-23T06:41:38;8.80;;;7.90;;
15198;SDS011;7700;48.654;9.070;2022-11-23T06:44:04;9.93;;;7.80;;
15198;SDS011;7700;48.654;9.070;2022-11-23T06:46:31;10.80;;;8.00;;
15198;SDS011;7700;48.654;9.070;2022-11-23T06:48:57;8.70;;;6.50;;
15198;SDS011;7700;48.654;9.070;2022-11-23T06:51:23;6.33;;;5.47;;
15198;SDS011;7700;48.654;9.070;2022-11-23T06:53:49;6.67;;;4.43;;
15198;SDS011;7700;48.654;9.070;2022-11-23T06:56:15;4.77;;;4.23;;
15198;SDS011;7700;48.654;9.070;2022-11-23T06:58:41;7.20;;;4.83;;
15198;SDS011;7700;48.654;9.070;2022-11-23T07:01:07;8.77;;;5.30;;
15198;SDS011;7700;48.654;9.070;2022-11-23T07:03:34;8.33;;;5.40;;
15198;SDS011;7700;48.654;9.070;2022-11-23T07:06:07;6.90;;;4.67;;
15198;SDS011;7700;48.654;9.070;2022-11-23T07:08:34;9.40;;;5.70;;
15198;SDS011;7700;48.654;9.070;2022-11-23T07:11:03;7.57;;;4.50;;
15198;SDS011;7700;48.654;9.070;2022-11-23T07:13:30;6.50;;;4.70;;
15198;SDS011;7700;48.654;9.070;2022-11-23T07:15:57;6.47;;;4.30;;
15198;SDS011;7700;48.654;9.070;2022-11-23T07:18:23;5.73;;;4.13;;
15198;SDS011;7700;48.654;9.070;2022-11-23T07:20:49;8.53;;;4.87;;
15198;SDS011;7700;48.654;9.070;2022-11-23T07:23:15;6.47;;;5.33;;
15198;SDS011;7700;48.654;9.070;2022-11-23T07:25:41;7.60;;;3.60;;
15198;SDS011;7700;48.654;9.070;2022-11-23T07:28:07;6.97;;;3.87;;
15198;SDS011;7700;48.654;9.070;2022-11-23T07:30:35;6.43;;;3.87;;
15198;SDS011;7700;48.654;9.070;2022-11-23T07:33:01;14.40;;;4.33;;
15198;SDS011;7700;48.654;9.070;2022-11-23T07:35:28;4.03;;;3.50;;
15198;SDS011;7700;48.654;9.070;2022-11-23T07:37:55;4.80;;;3.60;;
15198;SDS011;7700;48.654;9.070;2022-11-23T07:40:21;5.30;;;3.17;;
15198;SDS011;7700;48.654;9.070;2022-11-23T07:42:47;3.97;;;3.50;;
15198;SDS011;7700;48.654;9.070;2022-11-23T07:45:13;4.37;;;2.93;;
15198;SDS011;7700;48.654;9.070;2022-11-23T07:47:39;7.03;;;3.53;;
15198;SDS011;7700;48.654;9.070;2022-11-23T07:50:06;4.23;;;3.47;;
15198;SDS011;7700;48.654;9.070;2022-11-23T07:52:32;5.50;;;3.63;;
15198;SDS011;7700;48.654;9.070;2022-11-23T07:54:59;4.93;;;3.77;;
15198;SDS011;7700;48.654;9.070;2022-11-23T07:57:25;4.20;;;3.80;;
15198;SDS011;7700;48.654;9.070;2022-11-23T07:59:51;7.57;;;4.80;;
15198;SDS011;7700;48.654;9.070;2022-11-23T08:02:17;6.35;;;4.75;;
15198;SDS011;7700;48.654;9.070;2022-11-23T08:04:43;5.85;;;3.60;;
15198;SDS011;7700;48.654;9.070;2022-11-23T08:07:09;4.53;;;3.08;;
15198;SDS011;7700;48.654;9.070;2022-11-23T08:09:36;3.92;;;2.42;;
15198;SDS011;7700;48.654;9.070;2022-11-23T08:12:02;2.65;;;1.83;;
15198;SDS011;7700;48.654;9.070;2022-11-23T08:14:28;3.80;;;2.40;;
15198;SDS011;7700;48.654;9.070;2022-11-23T08:16:54;2.47;;;2.28;;
15198;SDS011;7700;48.654;9.070;2022-11-23T08:19:20;3.00;;;2.50;;
15198;SDS011;7700;48.654;9.070;2022-11-23T08:21:46;3.30;;;2.60;;
15198;SDS011;7700;48.654;9.070;2022-11-23T08:24:12;4.30;;;2.63;;
15198;SDS011;7700;48.654;9.070;2022-11-23T08:26:38;4.03;;;3.63;;
15198;SDS011;7700;48.654;9.070;2022-11-23T08:29:04;2.90;;;2.50;;
15198;SDS011;7700;48.654;9.070;2022-11-23T08:31:30;2.67;;;2.17;;
15198;SDS011;7700;48.654;9.070;2022-11-23T08:33:56;3.42;;;2.30;;
15198;SDS011;7700;48.654;9.070;2022-11-23T08:36:22;2.30;;;1.50;;
15198;SDS011;7700;48.654;9.070;2022-11-23T08:38:48;5.63;;;2.00;;
15198;SDS011;7700;48.654;9.070;2022-11-23T08:41:18;3.35;;;1.70;;
15198;SDS011;7700;48.654;9.070;2022-11-23T08:43:47;3.13;;;1.63;;
15198;SDS011;7700;48.654;9.070;2022-11-23T08:46:13;2.42;;;1.45;;
15198;SDS011;7700;48.654;9.070;2022-11-23T08:48:39;3.47;;;2.03;;
15198;SDS011;7700;48.654;9.070;2022-11-23T08:51:05;2.95;;;1.58;;
15198;SDS011;7700;48.654;9.070;2022-11-23T08:53:32;4.25;;;1.83;;
15198;SDS011;7700;48.654;9.070;2022-11-23T08:56:01;3.97;;;1.88;;
15198;SDS011;7700;48.654;9.070;2022-11-23T08:58:27;3.13;;;1.40;;
15198;SDS011;7700;48.654;9.070;2022-11-23T09:00:53;3.65;;;1.60;;
15198;SDS011;7700;48.654;9.070;2022-11-23T09:03:19;2.97;;;1.67;;
15198;SDS011;7700;48.654;9.070;2022-11-23T09:05:45;4.20;;;1.60;;
15198;SDS011;7700;48.654;9.070;2022-11-23T09:08:11;3.83;;;1.67;;
15198;SDS011;7700;48.654;9.070;2022-11-23T09:10:39;2.45;;;1.42;;
15198;SDS011;7700;48.654;9.070;2022-11-23T09:13:05;3.22;;;1.75;;
15198;SDS011;7700;48.654;9.070;2022-11-23T09:15:31;4.93;;;1.85;;
15198;SDS011;7700;48.654;9.070;2022-11-23T09:17:57;2.88;;;1.55;;
15198;SDS011;7700;48.654;9.070;2022-11-23T09:20:23;1.95;;;1.42;;
15198;SDS011;7700;48.654;9.070;2022-11-23T09:22:52;3.75;;;1.73;;
15198;SDS011;7700;48.654;9.070;2022-11-23T09:25:19;2.92;;;1.80;;
15198;SDS011;7700;48.654;9.070;2022-11-23T09:27:45;2.72;;;1.83;;
15198;SDS011;7700;48.654;9.070;2022-11-23T09:30:11;3.67;;;1.90;;
15198;SDS011;7700;48.654;9.070;2022-11-23T09:32:37;2.63;;;1.65;;
15198;SDS011;7700;48.654;9.070;2022-11-23T09:35:04;3.75;;;1.73;;
15198;SDS011;7700;48.654;9.070;2022-11-23T09:37:30;1.65;;;1.50;;
15198;SDS011;7700;48.654;9.070;2022-11-23T09:39:56;3.50;;;1.75;;
15198;SDS011;7700;48.654;9.070;2022-11-23T09:47:56;3.45;;;1.50;;
15198;SDS011;7700;48.654;9.070;2022-11-23T09:50:42;4.40;;;1.70;;
15198;SDS011;7700;48.654;9.070;2022-11-23T09:53:11;3.97;;;1.30;;
15198;SDS011;7700;48.654;9.070;2022-11-23T09:58:05;3.75;;;1.65;;
15198;SDS011;7700;48.654;9.070;2022-11-23T10:03:34;4.53;;;1.55;;
15198;SDS011;7700;48.654;9.070;2022-11-23T10:11:21;4.43;;;1.88;;
15198;SDS011;7700;48.654;9.070;2022-11-23T10:13:58;3.15;;;1.40;;
15198;SDS011;7700;48.654;9.070;2022-11-23T10:16:32;3.45;;;1.77;;
15198;SDS011;7700;48.654;9.070;2022-11-23T10:21:50;6.28;;;3.15;;
15198;SDS011;7700;48.654;9.070;2022-11-23T10:24:19;6.65;;;3.00;;
15198;SDS011;7700;48.654;9.070;2022-11-23T10:26:49;6.50;;;3.17;;
15198;SDS011;7700;48.654;9.070;2022-11-23T10:29:27;5.57;;;2.97;;
15198;SDS011;7700;48.654;9.070;2022-11-23T10:31:54;4.93;;;2.40;;
15198;SDS011;7700;48.654;9.070;2022-11-23T10:34:23;7.63;;;3.03;;
15198;SDS011;7700;48.654;9.070;2022-11-23T10:36:50;5.68;;;2.60;;
15198;SDS011;7700;48.654;9.070;2022-11-23T10:39:23;3.22;;;2.00;;
15198;SDS011;7700;48.654;9.070;2022-11-23T10:41:50;3.58;;;2.20;;
15198;SDS011;7700;48.654;9.070;2022-11-23T10:46:43;4.60;;;2.00;;
15198;SDS011;7700;48.654;9.070;2022-11-23T10:49:12;2.80;;;1.77;;
15198;SDS011;7700;48.654;9.070;2022-11-23T10:51:40;3.92;;;1.67;;
15198;SDS011;7700;48.654;9.070;2022-11-23T10:54:18;3.80;;;1.73;;
15198;SDS011;7700;48.654;9.070;2022-11-23T10:56:46;3.88;;;1.60;;
15198;SDS011;7700;48.654;9.070;2022-11-23T10:59:24;5.28;;;1.70;;
15198;SDS011;7700;48.654;9.070;2022-11-23T11:02:01;3.70;;;1.48;;
15198;SDS011;7700;48.654;9.070;2022-11-23T11:04:27;2.63;;;1.60;;
15198;SDS011;7700;48.654;9.070;2022-11-23T11:07:08;4.03;;;1.52;;
15198;SDS011;7700;48.654;9.070;2022-11-23T11:09:34;3.30;;;1.35;;
15198;SDS011;7700;48.654;9.070;2022-11-23T11:12:00;2.40;;;1.33;;
15198;SDS011;7700;48.654;9.070;2022-11-23T11:14:26;3.38;;;1.60;;
15198;SDS011;7700;48.654;9.070;2022-11-23T11:16:53;3.75;;;1.80;;
15198;SDS011;7700;48.654;9.070;2022-11-23T11:19:21;2.42;;;1.40;;
15198;SDS011;7700;48.654;9.070;2022-11-23T11:21:47;3.20;;;1.60;;
15198;SDS011;7700;48.654;9.070;2022-11-23T11:24:17;4.30;;;1.58;;
15198;SDS011;7700;48.654;9.070;2022-11-23T11:26:57;3.10;;;1.45;;
15198;SDS011;7700;48.654;9.070;2022-11-23T11:29:31;3.80;;;1.55;;
15198;SDS011;7700;48.654;9.070;2022-11-23T11:31:59;2.25;;;1.33;;
15198;SDS011;7700;48.654;9.070;2022-11-23T11:37:13;2.38;;;1.50;;
15198;SDS011;7700;48.654;9.070;2022-11-23T11:42:12;3.57;;;1.60;;
15198;SDS011;7700;48.654;9.070;2022-11-23T11:44:40;2.53;;;1.30;;
15198;SDS011;7700;48.654;9.070;2022-11-23T11:47:18;3.00;;;1.45;;
15198;SDS011;7700;48.654;9.070;2022-11-23T11:49:47;2.00;;;1.45;;
15198;SDS011;7700;48.654;9.070;2022-11-23T11:52:20;1.95;;;1.55;;
15198;SDS011;7700;48.654;9.070;2022-11-23T11:54:52;1.63;;;1.40;;
15198;SDS011;7700;48.654;9.070;2022-11-23T11:57:21;1.70;;;1.40;;
15198;SDS011;7700;48.654;9.070;2022-11-23T11:59:49;2.42;;;1.23;;
15198;SDS011;7700;48.654;9.070;2022-11-23T12:02:19;4.13;;;1.27;;
15198;SDS011;7700;48.654;9.070;2022-11-23T12:09:42;1.43;;;1.03;;
15198;SDS011;7700;48.654;9.070;2022-11-23T12:12:16;2.20;;;1.13;;
15198;SDS011;7700;48.654;9.070;2022-11-23T12:14:43;1.60;;;1.30;;
15198;SDS011;7700;48.654;9.070;2022-11-23T12:17:25;1.20;;;1.10;;
15198;SDS011;7700;48.654;9.070;2022-11-23T12:19:58;2.47;;;1.30;;
15198;SDS011;7700;48.654;9.070;2022-11-23T12:27:38;1.57;;;1.27;;
15198;SDS011;7700;48.654;9.070;2022-11-23T12:38:01;2.50;;;1.50;;
15198;SDS011;7700;48.654;9.070;2022-11-23T12:40:33;1.08;;;0.95;;
15198;SDS011;7700;48.654;9.070;2022-11-23T12:43:21;6.17;;;1.60;;
15198;SDS011;7700;48.654;9.070;2022-11-23T12:45:51;1.23;;;0.90;;
15198;SDS011;7700;48.654;9.070;2022-11-23T12:48:31;1.08;;;0.90;;
15198;SDS011;7700;48.654;9.070;2022-11-23T12:51:05;2.15;;;0.82;;
15198;SDS011;7700;48.654;9.070;2022-11-23T12:53:47;2.25;;;0.93;;
15198;SDS011;7700;48.654;9.070;2022-11-23T12:58:40;1.93;;;1.10;;
15198;SDS011;7700;48.654;9.070;2022-11-23T13:01:18;0.93;;;0.77;;
15198;SDS011;7700;48.654;9.070;2022-11-23T13:03:54;2.00;;;0.90;;
15198;SDS011;7700;48.654;9.070;2022-11-23T13:14:14;3.57;;;1.33;;
15198;SDS011;7700;48.654;9.070;2022-11-23T13:22:13;2.83;;;1.10;;
15198;SDS011;7700;48.654;9.070;2022-11-23T13:24:56;0.70;;;0.70;;
15198;SDS011;7700;48.654;9.070;2022-11-23T13:35:00;2.67;;;1.27;;
15198;SDS011;7700;48.654;9.070;2022-11-23T13:37:26;2.27;;;1.57;;
15198;SDS011;7700;48.654;9.070;2022-11-23T13:42:23;4.10;;;1.50;;
15198;SDS011;7700;48.654;9.070;2022-11-23T13:45:11;1.23;;;1.00;;
15198;SDS011;7700;48.654;9.070;2022-11-23T13:47:35;1.83;;;1.20;;
15198;SDS011;7700;48.654;9.070;2022-11-23T13:50:35;4.13;;;1.20;;
15198;SDS011;7700;48.654;9.070;2022-11-23T13:52:53;1.40;;;0.80;;
15198;SDS011;7700;48.654;9.070;2022-11-23T13:55:20;1.73;;;0.97;;
15198;SDS011;7700;48.654;9.070;2022-11-23T13:58:35;2.67;;;1.13;;
15198;SDS011;7700;48.654;9.070;2022-11-23T14:00:47;2.33;;;1.17;;
15198;SDS011;7700;48.654;9.070;2022-11-23T14:05:59;1.40;;;0.93;;
15198;SDS011;7700;48.654;9.070;2022-11-23T14:08:25;1.00;;;0.80;;
15198;SDS011;7700;48.654;9.070;2022-11-23T14:10:52;3.50;;;1.10;;
15198;SDS011;7700;48.654;9.070;2022-11-23T14:13:23;1.27;;;0.80;;
15198;SDS011;7700;48.654;9.070;2022-11-23T14:15:52;1.90;;;1.00;;
15198;SDS011;7700;48.654;9.070;2022-11-23T14:21:00;3.43;;;1.37;;
15198;SDS011;7700;48.654;9.070;2022-11-23T14:23:40;1.03;;;0.80;;
15198;SDS011;7700;48.654;9.070;2022-11-23T14:39:26;0.97;;;0.67;;
15198;SDS011;7700;48.654;9.070;2022-11-23T14:41:57;1.27;;;0.77;;
15198;SDS011;7700;48.654;9.070;2022-11-23T14:44:26;1.87;;;0.80;;
15198;SDS011;7700;48.654;9.070;2022-11-23T14:46:59;1.77;;;0.90;;
15198;SDS011;7700;48.654;9.070;2022-11-23T14:49:25;1.57;;;0.90;;
15198;SDS011;7700;48.654;9.070;2022-11-23T14:51:52;1.97;;;0.80;;
15198;SDS011;7700;48.654;9.070;2022-11-23T14:54:18;2.33;;;1.03;;
15198;SDS011;7700;48.654;9.070;2022-11-23T14:56:45;2.73;;;0.90;;
15198;SDS011;7700;48.654;9.070;2022-11-23T14:59:27;3.07;;;1.23;;
15198;SDS011;7700;48.654;9.070;2022-11-23T15:01:58;1.27;;;0.80;;
15198;SDS011;7700;48.654;9.070;2022-11-23T15:04:26;2.33;;;0.90;;
15198;SDS011;7700;48.654;9.070;2022-11-23T15:06:59;2.53;;;1.10;;
15198;SDS011;7700;48.654;9.070;2022-11-23T15:09:32;1.97;;;1.13;;
15198;SDS011;7700;48.654;9.070;2022-11-23T15:12:05;2.40;;;1.07;;
15198;SDS011;7700;48.654;9.070;2022-11-23T15:14:31;0.80;;;0.80;;
15198;SDS011;7700;48.654;9.070;2022-11-23T15:17:18;2.70;;;0.90;;
15198;SDS011;7700;48.654;9.070;2022-11-23T15:20:00;1.10;;;0.90;;
15198;SDS011;7700;48.654;9.070;2022-11-23T15:22:26;4.23;;;2.03;;
15198;SDS011;7700;48.654;9.070;2022-11-23T15:24:53;2.57;;;1.60;;
15198;SDS011;7700;48.654;9.070;2022-11-23T15:27:22;2.33;;;1.30;;
15198;SDS011;7700;48.654;9.070;2022-11-23T15:29:54;1.60;;;1.20;;
15198;SDS011;7700;48.654;9.070;2022-11-23T15:32:22;1.27;;;1.00;;
15198;SDS011;7700;48.654;9.070;2022-11-23T15:34:48;2.53;;;1.10;;
15198;SDS011;7700;48.654;9.070;2022-11-23T15:37:15;1.33;;;1.07;;
15198;SDS011;7700;48.654;9.070;2022-11-23T15:39:41;1.97;;;0.97;;
15198;SDS011;7700;48.654;9.070;2022-11-23T15:42:09;2.07;;;1.10;;
15198;SDS011;7700;48.654;9.070;2022-11-23T15:44:38;2.80;;;1.20;;
15198;SDS011;7700;48.654;9.070;2022-11-23T15:47:04;2.13;;;1.40;;
15198;SDS011;7700;48.654;9.070;2022-11-23T15:49:35;1.43;;;0.90;;
15198;SDS011;7700;48.654;9.070;2022-11-23T15:52:01;1.20;;;1.10;;
15198;SDS011;7700;48.654;9.070;2022-11-23T15:54:31;3.83;;;1.23;;
15198;SDS011;7700;48.654;9.070;2022-11-23T15:56:58;2.20;;;1.10;;
15198;SDS011;7700;48.654;9.070;2022-11-23T15:59:44;1.60;;;1.00;;
15198;SDS011;7700;48.654;9.070;2022-11-23T16:04:40;1.37;;;1.17;;
15198;SDS011;7700;48.654;9.070;2022-11-23T16:07:23;1.40;;;1.00;;
15198;SDS011;7700;48.654;9.070;2022-11-23T16:09:50;3.20;;;1.20;;
15198;SDS011;7700;48.654;9.070;2022-11-23T16:14:49;1.87;;;1.50;;
15198;SDS011;7700;48.654;9.070;2022-11-23T16:17:19;1.57;;;1.13;;
15198;SDS011;7700;48.654;9.070;2022-11-23T16:19:48;3.63;;;1.37;;
15198;SDS011;7700;48.654;9.070;2022-11-23T16:22:17;1.70;;;1.30;;
15198;SDS011;7700;48.654;9.070;2022-11-23T16:24:46;4.20;;;1.50;;
15198;SDS011;7700;48.654;9.070;2022-11-23T16:27:12;3.63;;;1.30;;
15198;SDS011;7700;48.654;9.070;2022-11-23T16:29:39;2.83;;;1.43;;
15198;SDS011;7700;48.654;9.070;2022-11-23T16:32:05;4.03;;;1.40;;
15198;SDS011;7700;48.654;9.070;2022-11-23T16:34:31;1.40;;;1.30;;
15198;SDS011;7700;48.654;9.070;2022-11-23T16:36:59;1.77;;;1.20;;
15198;SDS011;7700;48.654;9.070;2022-11-23T16:39:27;3.03;;;1.00;;
15198;SDS011;7700;48.654;9.070;2022-11-23T16:41:53;1.63;;;1.00;;
15198;SDS011;7700;48.654;9.070;2022-11-23T16:44:20;4.27;;;2.60;;
15198;SDS011;7700;48.654;9.070;2022-11-23T16:46:46;8.23;;;4.50;;